sensor_id;sensor_type;location;lat;lon;timestamp;P1;durP1;ratioP1;P2;durP2;ratioP2
64950;SDS011;51482;47.014;7.652;2023-07-30T00:02:17;3.35;;;3.05;;
64950;SDS011;51482;47.014;7.652;2023-07-30T00:04:43;3.50;;;3.20;;
64950;SDS011;51482;47.014;7.652;2023-07-30T00:07:09;3.20;;;2.67;;
64950;SDS011;51482;47.014;7.652;2023-07-30T00:09:35;3.50;;;3.20;;
64950;SDS011;51482;47.014;7.652;2023-07-30T00:12:00;3.30;;;2.83;;
64950;SDS011;51482;47.014;7.652;2023-07-30T00:14:27;3.47;;;3.17;;
64950;SDS011;51482;47.014;7.652;2023-07-30T00:16:52;5.05;;;3.08;;
64950;SDS011;51482;47.014;7.652;2023-07-30T00:19:18;3.83;;;3.10;;
64950;SDS011;51482;47.014;7.652;2023-07-30T00:21:44;3.85;;;3.30;;
64950;SDS011;51482;47.014;7.652;2023-07-30T00:24:12;3.17;;;2.88;;
64950;SDS011;51482;47.014;7.652;2023-07-30T00:26:38;3.88;;;3.45;;
64950;SDS011;51482;47.014;7.652;2023-07-30T00:29:03;3.50;;;3.15;;
64950;SDS011;51482;47.014;7.652;2023-07-30T00:31:29;3.75;;;3.25;;
64950;SDS011;51482;47.014;7.652;2023-07-30T00:33:54;3.80;;;3.38;;
64950;SDS011;51482;47.014;7.652;2023-07-30T00:36:20;4.38;;;3.33;;
64950;SDS011;51482;47.014;7.652;2023-07-30T00:38:46;3.80;;;2.80;;
64950;SDS011;51482;47.014;7.652;2023-07-30T00:41:11;7.75;;;4.43;;
64950;SDS011;51482;47.014;7.652;2023-07-30T00:43:37;4.72;;;3.10;;
64950;SDS011;51482;47.014;7.652;2023-07-30T00:46:02;3.80;;;2.95;;
64950;SDS011;51482;47.014;7.652;2023-07-30T00:48:28;3.80;;;3.30;;
64950;SDS011;51482;47.014;7.652;2023-07-30T00:50:54;3.15;;;2.95;;
64950;SDS011;51482;47.014;7.652;2023-07-30T00:53:20;5.88;;;3.15;;
64950;SDS011;51482;47.014;7.652;2023-07-30T00:55:48;3.65;;;3.33;;
64950;SDS011;51482;47.014;7.652;2023-07-30T00:58:14;5.90;;;3.08;;
64950;SDS011;51482;47.014;7.652;2023-07-30T01:00:40;4.85;;;3.50;;
64950;SDS011;51482;47.014;7.652;2023-07-30T01:03:06;5.22;;;3.05;;
64950;SDS011;51482;47.014;7.652;2023-07-30T01:05:32;3.45;;;3.10;;
64950;SDS011;51482;47.014;7.652;2023-07-30T01:07:58;3.47;;;3.17;;
64950;SDS011;51482;47.014;7.652;2023-07-30T01:10:24;3.20;;;2.90;;
64950;SDS011;51482;47.014;7.652;2023-07-30T01:12:50;4.45;;;3.78;;
64950;SDS011;51482;47.014;7.652;2023-07-30T01:15:17;5.72;;;3.15;;
64950;SDS011;51482;47.014;7.652;2023-07-30T01:17:43;3.63;;;2.88;;
64950;SDS011;51482;47.014;7.652;2023-07-30T01:20:10;8.45;;;3.53;;
64950;SDS011;51482;47.014;7.652;2023-07-30T01:22:36;4.43;;;3.65;;
64950;SDS011;51482;47.014;7.652;2023-07-30T01:25:02;5.18;;;3.35;;
64950;SDS011;51482;47.014;7.652;2023-07-30T01:27:28;5.03;;;3.10;;
64950;SDS011;51482;47.014;7.652;2023-07-30T01:30:57;3.45;;;3.15;;
64950;SDS011;51482;47.014;7.652;2023-07-30T01:32:52;3.63;;;3.33;;
64950;SDS011;51482;47.014;7.652;2023-07-30T01:35:22;3.00;;;2.78;;
64950;SDS011;51482;47.014;7.652;2023-07-30T01:37:51;3.47;;;3.17;;
64950;SDS011;51482;47.014;7.652;2023-07-30T01:40:17;4.90;;;3.90;;
64950;SDS011;51482;47.014;7.652;2023-07-30T01:42:43;4.18;;;3.78;;
64950;SDS011;51482;47.014;7.652;2023-07-30T01:45:08;3.58;;;3.28;;
64950;SDS011;51482;47.014;7.652;2023-07-30T01:47:34;3.92;;;3.15;;
64950;SDS011;51482;47.014;7.652;2023-07-30T01:50:00;4.70;;;3.38;;
64950;SDS011;51482;47.014;7.652;2023-07-30T01:52:25;3.42;;;3.13;;
64950;SDS011;51482;47.014;7.652;2023-07-30T01:54:51;6.32;;;3.20;;
64950;SDS011;51482;47.014;7.652;2023-07-30T01:57:16;4.40;;;3.28;;
64950;SDS011;51482;47.014;7.652;2023-07-30T01:59:42;6.03;;;3.30;;
64950;SDS011;51482;47.014;7.652;2023-07-30T02:02:08;5.60;;;3.00;;
64950;SDS011;51482;47.014;7.652;2023-07-30T02:04:33;3.75;;;3.35;;
64950;SDS011;51482;47.014;7.652;2023-07-30T02:06:59;3.40;;;3.10;;
64950;SDS011;51482;47.014;7.652;2023-07-30T02:09:24;4.90;;;3.90;;
64950;SDS011;51482;47.014;7.652;2023-07-30T02:11:50;5.32;;;3.40;;
64950;SDS011;51482;47.014;7.652;2023-07-30T02:14:17;3.45;;;3.15;;
64950;SDS011;51482;47.014;7.652;2023-07-30T02:16:43;4.53;;;3.08;;
64950;SDS011;51482;47.014;7.652;2023-07-30T02:19:08;4.13;;;2.92;;
64950;SDS011;51482;47.014;7.652;2023-07-30T02:21:34;4.05;;;3.38;;
64950;SDS011;51482;47.014;7.652;2023-07-30T02:24:02;3.50;;;3.20;;
64950;SDS011;51482;47.014;7.652;2023-07-30T02:26:27;4.60;;;3.08;;
64950;SDS011;51482;47.014;7.652;2023-07-30T02:28:53;4.47;;;3.58;;
64950;SDS011;51482;47.014;7.652;2023-07-30T02:31:18;5.00;;;3.58;;
64950;SDS011;51482;47.014;7.652;2023-07-30T02:33:44;3.75;;;3.45;;
64950;SDS011;51482;47.014;7.652;2023-07-30T02:36:09;4.10;;;3.53;;
64950;SDS011;51482;47.014;7.652;2023-07-30T02:38:35;3.95;;;3.50;;
64950;SDS011;51482;47.014;7.652;2023-07-30T02:41:00;5.93;;;3.28;;
64950;SDS011;51482;47.014;7.652;2023-07-30T02:43:26;3.65;;;2.90;;
64950;SDS011;51482;47.014;7.652;2023-07-30T02:45:51;3.53;;;3.13;;
64950;SDS011;51482;47.014;7.652;2023-07-30T02:48:17;5.38;;;3.17;;
64950;SDS011;51482;47.014;7.652;2023-07-30T02:50:42;4.70;;;3.10;;
64950;SDS011;51482;47.014;7.652;2023-07-30T02:53:08;4.45;;;3.25;;
64950;SDS011;51482;47.014;7.652;2023-07-30T02:55:34;3.15;;;2.85;;
64950;SDS011;51482;47.014;7.652;2023-07-30T02:57:59;4.97;;;3.55;;
64950;SDS011;51482;47.014;7.652;2023-07-30T03:00:25;3.50;;;3.20;;
64950;SDS011;51482;47.014;7.652;2023-07-30T03:02:50;6.28;;;3.28;;
64950;SDS011;51482;47.014;7.652;2023-07-30T03:05:16;3.80;;;3.45;;
64950;SDS011;51482;47.014;7.652;2023-07-30T03:07:41;5.35;;;3.40;;
64950;SDS011;51482;47.014;7.652;2023-07-30T03:10:07;4.90;;;3.50;;
64950;SDS011;51482;47.014;7.652;2023-07-30T03:12:32;4.07;;;3.17;;
64950;SDS011;51482;47.014;7.652;2023-07-30T03:14:58;4.50;;;3.10;;
64950;SDS011;51482;47.014;7.652;2023-07-30T03:17:23;3.45;;;3.15;;
64950;SDS011;51482;47.014;7.652;2023-07-30T03:19:50;4.10;;;3.40;;
64950;SDS011;51482;47.014;7.652;2023-07-30T03:22:15;3.58;;;3.22;;
64950;SDS011;51482;47.014;7.652;2023-07-30T03:24:41;4.05;;;3.58;;
64950;SDS011;51482;47.014;7.652;2023-07-30T03:27:06;4.95;;;3.38;;
64950;SDS011;51482;47.014;7.652;2023-07-30T03:29:32;6.53;;;3.30;;
64950;SDS011;51482;47.014;7.652;2023-07-30T03:31:57;5.15;;;3.10;;
64950;SDS011;51482;47.014;7.652;2023-07-30T03:34:23;5.82;;;3.55;;
64950;SDS011;51482;47.014;7.652;2023-07-30T03:36:48;3.38;;;3.13;;
64950;SDS011;51482;47.014;7.652;2023-07-30T03:39:14;6.15;;;3.58;;
64950;SDS011;51482;47.014;7.652;2023-07-30T03:41:39;4.15;;;3.75;;
64950;SDS011;51482;47.014;7.652;2023-07-30T03:44:05;4.32;;;3.50;;
64950;SDS011;51482;47.014;7.652;2023-07-30T03:46:30;4.18;;;3.58;;
64950;SDS011;51482;47.014;7.652;2023-07-30T03:48:56;4.70;;;3.67;;
64950;SDS011;51482;47.014;7.652;2023-07-30T03:51:21;5.10;;;3.65;;
64950;SDS011;51482;47.014;7.652;2023-07-30T03:53:47;4.15;;;3.70;;
64950;SDS011;51482;47.014;7.652;2023-07-30T03:56:13;4.47;;;3.40;;
64950;SDS011;51482;47.014;7.652;2023-07-30T03:58:38;3.58;;;3.13;;
64950;SDS011;51482;47.014;7.652;2023-07-30T04:01:04;3.40;;;3.10;;
64950;SDS011;51482;47.014;7.652;2023-07-30T04:03:29;3.63;;;3.33;;
64950;SDS011;51482;47.014;7.652;2023-07-30T04:05:55;3.83;;;2.90;;
64950;SDS011;51482;47.014;7.652;2023-07-30T04:08:20;5.50;;;3.28;;
64950;SDS011;51482;47.014;7.652;2023-07-30T04:10:46;3.80;;;3.30;;
64950;SDS011;51482;47.014;7.652;2023-07-30T04:13:11;5.55;;;3.42;;
64950;SDS011;51482;47.014;7.652;2023-07-30T04:15:37;5.85;;;4.00;;
64950;SDS011;51482;47.014;7.652;2023-07-30T04:18:02;6.85;;;3.20;;
64950;SDS011;51482;47.014;7.652;2023-07-30T04:20:28;3.35;;;2.97;;
64950;SDS011;51482;47.014;7.652;2023-07-30T04:22:53;6.40;;;3.78;;
64950;SDS011;51482;47.014;7.652;2023-07-30T04:25:19;3.70;;;3.40;;
64950;SDS011;51482;47.014;7.652;2023-07-30T04:27:45;4.90;;;4.45;;
64950;SDS011;51482;47.014;7.652;2023-07-30T04:30:10;3.95;;;3.55;;
64950;SDS011;51482;47.014;7.652;2023-07-30T04:32:36;5.40;;;3.42;;
64950;SDS011;51482;47.014;7.652;2023-07-30T04:35:02;6.03;;;3.40;;
64950;SDS011;51482;47.014;7.652;2023-07-30T04:37:28;4.13;;;3.38;;
64950;SDS011;51482;47.014;7.652;2023-07-30T04:39:53;4.15;;;3.72;;
64950;SDS011;51482;47.014;7.652;2023-07-30T04:42:19;4.40;;;3.95;;
64950;SDS011;51482;47.014;7.652;2023-07-30T04:44:45;5.03;;;2.97;;
64950;SDS011;51482;47.014;7.652;2023-07-30T04:47:10;4.18;;;3.35;;
64950;SDS011;51482;47.014;7.652;2023-07-30T04:49:36;3.47;;;3.17;;
64950;SDS011;51482;47.014;7.652;2023-07-30T04:52:04;4.28;;;3.58;;
64950;SDS011;51482;47.014;7.652;2023-07-30T04:54:29;3.30;;;3.00;;
64950;SDS011;51482;47.014;7.652;2023-07-30T04:56:55;8.23;;;3.58;;
64950;SDS011;51482;47.014;7.652;2023-07-30T04:59:21;4.25;;;3.63;;
64950;SDS011;51482;47.014;7.652;2023-07-30T05:01:46;4.15;;;3.70;;
64950;SDS011;51482;47.014;7.652;2023-07-30T05:04:12;3.70;;;3.35;;
64950;SDS011;51482;47.014;7.652;2023-07-30T05:06:37;7.45;;;3.40;;
64950;SDS011;51482;47.014;7.652;2023-07-30T05:09:03;3.97;;;3.55;;
64950;SDS011;51482;47.014;7.652;2023-07-30T05:11:28;5.72;;;3.33;;
64950;SDS011;51482;47.014;7.652;2023-07-30T05:13:54;4.30;;;3.35;;
64950;SDS011;51482;47.014;7.652;2023-07-30T05:16:19;3.70;;;3.25;;
64950;SDS011;51482;47.014;7.652;2023-07-30T05:18:45;3.60;;;3.30;;
64950;SDS011;51482;47.014;7.652;2023-07-30T05:21:10;3.72;;;3.40;;
64950;SDS011;51482;47.014;7.652;2023-07-30T05:23:36;3.95;;;3.55;;
64950;SDS011;51482;47.014;7.652;2023-07-30T05:26:01;4.65;;;3.35;;
64950;SDS011;51482;47.014;7.652;2023-07-30T05:28:27;3.60;;;3.10;;
64950;SDS011;51482;47.014;7.652;2023-07-30T05:30:52;4.30;;;3.60;;
64950;SDS011;51482;47.014;7.652;2023-07-30T05:33:18;4.15;;;3.55;;
64950;SDS011;51482;47.014;7.652;2023-07-30T05:35:43;5.07;;;3.35;;
64950;SDS011;51482;47.014;7.652;2023-07-30T05:38:10;3.65;;;3.22;;
64950;SDS011;51482;47.014;7.652;2023-07-30T05:40:36;4.65;;;3.53;;
64950;SDS011;51482;47.014;7.652;2023-07-30T05:43:01;3.10;;;2.67;;
64950;SDS011;51482;47.014;7.652;2023-07-30T05:45:27;4.07;;;3.35;;
64950;SDS011;51482;47.014;7.652;2023-07-30T05:47:53;4.05;;;3.20;;
64950;SDS011;51482;47.014;7.652;2023-07-30T05:50:19;4.07;;;3.38;;
64950;SDS011;51482;47.014;7.652;2023-07-30T05:52:44;6.65;;;3.42;;
64950;SDS011;51482;47.014;7.652;2023-07-30T05:55:10;3.65;;;3.35;;
64950;SDS011;51482;47.014;7.652;2023-07-30T05:57:36;3.65;;;3.28;;
64950;SDS011;51482;47.014;7.652;2023-07-30T06:00:01;3.45;;;3.15;;
64950;SDS011;51482;47.014;7.652;2023-07-30T06:02:27;3.33;;;3.03;;
64950;SDS011;51482;47.014;7.652;2023-07-30T06:04:53;3.42;;;3.13;;
64950;SDS011;51482;47.014;7.652;2023-07-30T06:07:18;3.20;;;2.90;;
64950;SDS011;51482;47.014;7.652;2023-07-30T06:09:44;4.38;;;3.60;;
64950;SDS011;51482;47.014;7.652;2023-07-30T06:12:10;3.25;;;2.95;;
64950;SDS011;51482;47.014;7.652;2023-07-30T06:14:36;4.25;;;2.78;;
64950;SDS011;51482;47.014;7.652;2023-07-30T06:17:01;3.72;;;2.80;;
64950;SDS011;51482;47.014;7.652;2023-07-30T06:19:27;3.67;;;3.20;;
64950;SDS011;51482;47.014;7.652;2023-07-30T06:21:53;4.53;;;2.72;;
64950;SDS011;51482;47.014;7.652;2023-07-30T06:24:18;3.08;;;2.78;;
64950;SDS011;51482;47.014;7.652;2023-07-30T06:26:44;3.25;;;2.53;;
64950;SDS011;51482;47.014;7.652;2023-07-30T06:29:09;2.55;;;2.35;;
64950;SDS011;51482;47.014;7.652;2023-07-30T06:31:35;2.22;;;2.03;;
64950;SDS011;51482;47.014;7.652;2023-07-30T06:34:00;2.78;;;2.45;;
64950;SDS011;51482;47.014;7.652;2023-07-30T06:36:26;2.70;;;2.50;;
64950;SDS011;51482;47.014;7.652;2023-07-30T06:38:51;2.40;;;2.20;;
64950;SDS011;51482;47.014;7.652;2023-07-30T06:41:17;2.78;;;2.10;;
64950;SDS011;51482;47.014;7.652;2023-07-30T06:43:43;3.15;;;2.83;;
64950;SDS011;51482;47.014;7.652;2023-07-30T06:46:08;3.45;;;2.25;;
64950;SDS011;51482;47.014;7.652;2023-07-30T06:48:34;2.85;;;2.50;;
64950;SDS011;51482;47.014;7.652;2023-07-30T06:50:59;3.05;;;1.92;;
64950;SDS011;51482;47.014;7.652;2023-07-30T06:53:25;2.50;;;2.30;;
64950;SDS011;51482;47.014;7.652;2023-07-30T06:55:50;2.22;;;2.03;;
64950;SDS011;51482;47.014;7.652;2023-07-30T06:58:16;2.28;;;2.03;;
64950;SDS011;51482;47.014;7.652;2023-07-30T07:00:41;2.95;;;2.30;;
64950;SDS011;51482;47.014;7.652;2023-07-30T07:03:07;2.17;;;1.98;;
64950;SDS011;51482;47.014;7.652;2023-07-30T07:05:32;2.30;;;2.08;;
64950;SDS011;51482;47.014;7.652;2023-07-30T07:07:58;2.13;;;2.00;;
64950;SDS011;51482;47.014;7.652;2023-07-30T07:10:23;2.30;;;2.10;;
64950;SDS011;51482;47.014;7.652;2023-07-30T07:12:49;2.38;;;2.17;;
64950;SDS011;51482;47.014;7.652;2023-07-30T07:15:15;2.00;;;1.90;;
64950;SDS011;51482;47.014;7.652;2023-07-30T07:17:40;2.15;;;1.90;;
64950;SDS011;51482;47.014;7.652;2023-07-30T07:20:06;2.00;;;1.90;;
64950;SDS011;51482;47.014;7.652;2023-07-30T07:22:32;2.30;;;2.10;;
64950;SDS011;51482;47.014;7.652;2023-07-30T07:24:58;2.88;;;2.10;;
64950;SDS011;51482;47.014;7.652;2023-07-30T07:27:24;2.10;;;2.00;;
64950;SDS011;51482;47.014;7.652;2023-07-30T07:29:50;2.50;;;2.30;;
64950;SDS011;51482;47.014;7.652;2023-07-30T07:32:16;2.38;;;2.17;;
64950;SDS011;51482;47.014;7.652;2023-07-30T07:34:45;2.33;;;2.13;;
64950;SDS011;51482;47.014;7.652;2023-07-30T07:37:14;2.35;;;2.05;;
64950;SDS011;51482;47.014;7.652;2023-07-30T07:39:42;2.35;;;2.15;;
64950;SDS011;51482;47.014;7.652;2023-07-30T07:42:08;2.00;;;1.85;;
64950;SDS011;51482;47.014;7.652;2023-07-30T07:44:34;2.75;;;2.25;;
64950;SDS011;51482;47.014;7.652;2023-07-30T07:46:59;2.10;;;1.80;;
64950;SDS011;51482;47.014;7.652;2023-07-30T07:49:25;2.33;;;2.13;;
64950;SDS011;51482;47.014;7.652;2023-07-30T07:51:50;2.20;;;2.00;;
64950;SDS011;51482;47.014;7.652;2023-07-30T07:54:16;2.10;;;1.90;;
64950;SDS011;51482;47.014;7.652;2023-07-30T07:56:41;2.00;;;1.90;;
64950;SDS011;51482;47.014;7.652;2023-07-30T07:59:07;1.80;;;1.50;;
64950;SDS011;51482;47.014;7.652;2023-07-30T08:01:32;1.48;;;1.38;;
64950;SDS011;51482;47.014;7.652;2023-07-30T08:03:58;1.75;;;1.60;;
64950;SDS011;51482;47.014;7.652;2023-07-30T08:06:23;1.83;;;1.55;;
64950;SDS011;51482;47.014;7.652;2023-07-30T08:08:49;1.40;;;1.30;;
64950;SDS011;51482;47.014;7.652;2023-07-30T08:11:15;1.40;;;1.30;;
64950;SDS011;51482;47.014;7.652;2023-07-30T08:13:40;1.60;;;1.50;;
64950;SDS011;51482;47.014;7.652;2023-07-30T08:16:06;3.78;;;1.50;;
64950;SDS011;51482;47.014;7.652;2023-07-30T08:18:32;1.63;;;1.52;;
64950;SDS011;51482;47.014;7.652;2023-07-30T08:20:57;1.63;;;1.50;;
64950;SDS011;51482;47.014;7.652;2023-07-30T08:23:24;2.03;;;1.40;;
64950;SDS011;51482;47.014;7.652;2023-07-30T08:25:50;1.67;;;1.58;;
64950;SDS011;51482;47.014;7.652;2023-07-30T08:28:15;1.50;;;1.40;;
64950;SDS011;51482;47.014;7.652;2023-07-30T08:30:41;1.70;;;1.60;;
64950;SDS011;51482;47.014;7.652;2023-07-30T08:33:06;1.90;;;1.80;;
64950;SDS011;51482;47.014;7.652;2023-07-30T08:35:32;1.70;;;1.55;;
64950;SDS011;51482;47.014;7.652;2023-07-30T08:37:57;1.70;;;1.60;;
64950;SDS011;51482;47.014;7.652;2023-07-30T08:40:23;1.50;;;1.40;;
64950;SDS011;51482;47.014;7.652;2023-07-30T08:42:53;2.35;;;2.00;;
64950;SDS011;51482;47.014;7.652;2023-07-30T08:45:18;1.67;;;1.58;;
64950;SDS011;51482;47.014;7.652;2023-07-30T08:47:45;1.85;;;1.75;;
64950;SDS011;51482;47.014;7.652;2023-07-30T08:50:12;3.22;;;2.00;;
64950;SDS011;51482;47.014;7.652;2023-07-30T08:52:38;2.50;;;1.83;;
64950;SDS011;51482;47.014;7.652;2023-07-30T08:55:04;2.05;;;1.90;;
64950;SDS011;51482;47.014;7.652;2023-07-30T08:57:31;1.80;;;1.70;;
64950;SDS011;51482;47.014;7.652;2023-07-30T09:05:12;2.63;;;1.70;;
64950;SDS011;51482;47.014;7.652;2023-07-30T09:07:38;1.88;;;1.77;;
64950;SDS011;51482;47.014;7.652;2023-07-30T09:10:05;2.15;;;1.88;;
64950;SDS011;51482;47.014;7.652;2023-07-30T09:12:33;1.73;;;1.63;;
64950;SDS011;51482;47.014;7.652;2023-07-30T09:15:00;1.70;;;1.60;;
64950;SDS011;51482;47.014;7.652;2023-07-30T09:17:29;4.43;;;1.45;;
64950;SDS011;51482;47.014;7.652;2023-07-30T09:19:55;2.85;;;1.70;;
64950;SDS011;51482;47.014;7.652;2023-07-30T09:22:27;1.77;;;1.52;;
64950;SDS011;51482;47.014;7.652;2023-07-30T09:24:54;2.42;;;1.40;;
64950;SDS011;51482;47.014;7.652;2023-07-30T09:27:21;2.92;;;1.40;;
64950;SDS011;51482;47.014;7.652;2023-07-30T09:29:58;1.55;;;1.42;;
64950;SDS011;51482;47.014;7.652;2023-07-30T09:32:28;2.30;;;1.45;;
64950;SDS011;51482;47.014;7.652;2023-07-30T09:34:54;2.25;;;1.63;;
64950;SDS011;51482;47.014;7.652;2023-07-30T09:37:20;2.05;;;1.50;;
64950;SDS011;51482;47.014;7.652;2023-07-30T09:39:49;1.73;;;1.63;;
64950;SDS011;51482;47.014;7.652;2023-07-30T09:42:14;1.52;;;1.42;;
64950;SDS011;51482;47.014;7.652;2023-07-30T09:44:40;2.60;;;1.45;;
64950;SDS011;51482;47.014;7.652;2023-07-30T09:47:09;2.20;;;1.70;;
64950;SDS011;51482;47.014;7.652;2023-07-30T09:49:38;1.50;;;1.40;;
64950;SDS011;51482;47.014;7.652;2023-07-30T09:52:04;1.40;;;1.30;;
64950;SDS011;51482;47.014;7.652;2023-07-30T09:54:31;1.60;;;1.50;;
64950;SDS011;51482;47.014;7.652;2023-07-30T09:56:57;1.67;;;1.58;;
64950;SDS011;51482;47.014;7.652;2023-07-30T09:59:23;1.50;;;1.40;;
64950;SDS011;51482;47.014;7.652;2023-07-30T10:01:49;1.42;;;1.33;;
64950;SDS011;51482;47.014;7.652;2023-07-30T10:04:15;1.92;;;1.70;;
64950;SDS011;51482;47.014;7.652;2023-07-30T10:06:48;2.47;;;1.75;;
64950;SDS011;51482;47.014;7.652;2023-07-30T10:09:19;1.60;;;1.50;;
64950;SDS011;51482;47.014;7.652;2023-07-30T10:11:46;1.42;;;1.33;;
64950;SDS011;51482;47.014;7.652;2023-07-30T10:14:15;3.40;;;1.50;;
64950;SDS011;51482;47.014;7.652;2023-07-30T10:16:55;1.55;;;1.45;;
64950;SDS011;51482;47.014;7.652;2023-07-30T10:19:26;1.70;;;1.60;;
64950;SDS011;51482;47.014;7.652;2023-07-30T10:22:19;1.70;;;1.60;;
64950;SDS011;51482;47.014;7.652;2023-07-30T10:25:02;1.67;;;1.58;;
64950;SDS011;51482;47.014;7.652;2023-07-30T10:27:36;2.00;;;1.80;;
64950;SDS011;51482;47.014;7.652;2023-07-30T10:30:11;1.52;;;1.42;;
64950;SDS011;51482;47.014;7.652;2023-07-30T10:35:07;1.95;;;1.70;;
64950;SDS011;51482;47.014;7.652;2023-07-30T10:37:33;1.50;;;1.40;;
64950;SDS011;51482;47.014;7.652;2023-07-30T10:39:59;1.55;;;1.45;;
64950;SDS011;51482;47.014;7.652;2023-07-30T10:42:32;1.80;;;1.70;;
64950;SDS011;51482;47.014;7.652;2023-07-30T10:44:59;1.42;;;1.33;;
64950;SDS011;51482;47.014;7.652;2023-07-30T10:47:26;1.65;;;1.55;;
64950;SDS011;51482;47.014;7.652;2023-07-30T10:49:52;2.17;;;1.88;;
64950;SDS011;51482;47.014;7.652;2023-07-30T10:52:19;2.03;;;1.92;;
64950;SDS011;51482;47.014;7.652;2023-07-30T10:54:49;2.00;;;1.90;;
64950;SDS011;51482;47.014;7.652;2023-07-30T10:57:14;1.70;;;1.60;;
64950;SDS011;51482;47.014;7.652;2023-07-30T10:59:41;1.80;;;1.70;;
64950;SDS011;51482;47.014;7.652;2023-07-30T11:02:06;3.00;;;1.60;;
64950;SDS011;51482;47.014;7.652;2023-07-30T11:04:34;2.38;;;1.80;;
64950;SDS011;51482;47.014;7.652;2023-07-30T11:07:00;1.88;;;1.77;;
64950;SDS011;51482;47.014;7.652;2023-07-30T11:09:26;1.90;;;1.80;;
64950;SDS011;51482;47.014;7.652;2023-07-30T11:11:53;1.77;;;1.65;;
64950;SDS011;51482;47.014;7.652;2023-07-30T11:14:21;2.00;;;1.90;;
64950;SDS011;51482;47.014;7.652;2023-07-30T11:16:57;1.70;;;1.50;;
64950;SDS011;51482;47.014;7.652;2023-07-30T11:19:24;2.22;;;2.13;;
64950;SDS011;51482;47.014;7.652;2023-07-30T11:21:52;1.80;;;1.70;;
64950;SDS011;51482;47.014;7.652;2023-07-30T11:24:19;1.83;;;1.73;;
64950;SDS011;51482;47.014;7.652;2023-07-30T11:26:45;1.80;;;1.70;;
64950;SDS011;51482;47.014;7.652;2023-07-30T11:29:19;2.03;;;1.92;;
64950;SDS011;51482;47.014;7.652;2023-07-30T11:31:48;1.88;;;1.77;;
64950;SDS011;51482;47.014;7.652;2023-07-30T11:34:14;1.70;;;1.60;;
64950;SDS011;51482;47.014;7.652;2023-07-30T11:36:40;1.83;;;1.70;;
64950;SDS011;51482;47.014;7.652;2023-07-30T11:39:08;1.58;;;1.40;;
64950;SDS011;51482;47.014;7.652;2023-07-30T11:41:34;1.83;;;1.70;;
64950;SDS011;51482;47.014;7.652;2023-07-30T11:44:01;2.33;;;1.70;;
64950;SDS011;51482;47.014;7.652;2023-07-30T11:46:27;1.90;;;1.80;;
64950;SDS011;51482;47.014;7.652;2023-07-30T11:49:09;1.70;;;1.60;;
64950;SDS011;51482;47.014;7.652;2023-07-30T11:51:40;2.15;;;1.80;;
64950;SDS011;51482;47.014;7.652;2023-07-30T11:54:07;2.53;;;2.35;;
64950;SDS011;51482;47.014;7.652;2023-07-30T11:56:33;2.22;;;2.13;;
64950;SDS011;51482;47.014;7.652;2023-07-30T11:58:59;2.10;;;1.90;;
64950;SDS011;51482;47.014;7.652;2023-07-30T12:01:28;1.90;;;1.80;;
64950;SDS011;51482;47.014;7.652;2023-07-30T12:03:56;1.85;;;1.75;;
64950;SDS011;51482;47.014;7.652;2023-07-30T12:06:22;1.83;;;1.73;;
64950;SDS011;51482;47.014;7.652;2023-07-30T12:08:49;1.98;;;1.88;;
64950;SDS011;51482;47.014;7.652;2023-07-30T12:11:15;1.83;;;1.73;;
64950;SDS011;51482;47.014;7.652;2023-07-30T12:13:44;2.00;;;1.90;;
64950;SDS011;51482;47.014;7.652;2023-07-30T12:16:10;1.80;;;1.70;;
64950;SDS011;51482;47.014;7.652;2023-07-30T12:18:37;2.20;;;2.00;;
64950;SDS011;51482;47.014;7.652;2023-07-30T12:21:04;2.58;;;2.05;;
64950;SDS011;51482;47.014;7.652;2023-07-30T12:23:32;2.42;;;1.80;;
64950;SDS011;51482;47.014;7.652;2023-07-30T12:26:02;2.15;;;1.95;;
64950;SDS011;51482;47.014;7.652;2023-07-30T12:28:31;2.55;;;1.50;;
64950;SDS011;51482;47.014;7.652;2023-07-30T12:30:59;2.00;;;1.90;;
64950;SDS011;51482;47.014;7.652;2023-07-30T12:33:24;1.88;;;1.77;;
64950;SDS011;51482;47.014;7.652;2023-07-30T12:35:50;2.17;;;2.08;;
64950;SDS011;51482;47.014;7.652;2023-07-30T12:38:16;1.92;;;1.73;;
64950;SDS011;51482;47.014;7.652;2023-07-30T12:40:41;2.00;;;1.75;;
64950;SDS011;51482;47.014;7.652;2023-07-30T12:43:07;2.05;;;1.85;;
64950;SDS011;51482;47.014;7.652;2023-07-30T12:45:34;2.58;;;2.10;;
64950;SDS011;51482;47.014;7.652;2023-07-30T12:48:00;3.53;;;1.70;;
64950;SDS011;51482;47.014;7.652;2023-07-30T12:50:26;2.22;;;2.03;;
64950;SDS011;51482;47.014;7.652;2023-07-30T12:52:51;1.95;;;1.85;;
64950;SDS011;51482;47.014;7.652;2023-07-30T12:55:17;2.33;;;1.80;;
64950;SDS011;51482;47.014;7.652;2023-07-30T12:57:42;2.30;;;2.00;;
64950;SDS011;51482;47.014;7.652;2023-07-30T13:00:08;1.65;;;1.55;;
64950;SDS011;51482;47.014;7.652;2023-07-30T13:02:34;2.13;;;2.00;;
64950;SDS011;51482;47.014;7.652;2023-07-30T13:05:00;2.53;;;1.98;;
64950;SDS011;51482;47.014;7.652;2023-07-30T13:07:26;2.25;;;2.05;;
64950;SDS011;51482;47.014;7.652;2023-07-30T13:10:02;2.33;;;2.10;;
64950;SDS011;51482;47.014;7.652;2023-07-30T13:12:28;2.40;;;2.05;;
64950;SDS011;51482;47.014;7.652;2023-07-30T13:14:54;2.00;;;1.80;;
64950;SDS011;51482;47.014;7.652;2023-07-30T13:17:20;2.78;;;2.42;;
64950;SDS011;51482;47.014;7.652;2023-07-30T13:19:45;2.03;;;1.85;;
64950;SDS011;51482;47.014;7.652;2023-07-30T13:22:13;2.00;;;1.85;;
64950;SDS011;51482;47.014;7.652;2023-07-30T13:24:39;2.10;;;2.00;;
64950;SDS011;51482;47.014;7.652;2023-07-30T13:27:05;1.70;;;1.60;;
64950;SDS011;51482;47.014;7.652;2023-07-30T13:29:30;2.20;;;2.00;;
64950;SDS011;51482;47.014;7.652;2023-07-30T13:31:56;1.88;;;1.77;;
64950;SDS011;51482;47.014;7.652;2023-07-30T13:34:22;2.30;;;1.83;;
64950;SDS011;51482;47.014;7.652;2023-07-30T13:36:47;2.30;;;2.10;;
64950;SDS011;51482;47.014;7.652;2023-07-30T13:39:13;2.13;;;1.90;;
64950;SDS011;51482;47.014;7.652;2023-07-30T13:41:38;2.90;;;1.70;;
64950;SDS011;51482;47.014;7.652;2023-07-30T13:44:04;1.60;;;1.50;;
64950;SDS011;51482;47.014;7.652;2023-07-30T13:46:29;2.50;;;1.90;;
64950;SDS011;51482;47.014;7.652;2023-07-30T13:48:55;1.80;;;1.70;;
64950;SDS011;51482;47.014;7.652;2023-07-30T13:51:21;3.58;;;2.20;;
64950;SDS011;51482;47.014;7.652;2023-07-30T13:53:46;2.88;;;2.05;;
64950;SDS011;51482;47.014;7.652;2023-07-30T13:56:12;2.25;;;1.77;;
64950;SDS011;51482;47.014;7.652;2023-07-30T13:58:37;2.10;;;1.90;;
64950;SDS011;51482;47.014;7.652;2023-07-30T14:01:04;1.85;;;1.75;;
64950;SDS011;51482;47.014;7.652;2023-07-30T14:03:31;2.75;;;2.13;;
64950;SDS011;51482;47.014;7.652;2023-07-30T14:05:57;2.20;;;2.00;;
64950;SDS011;51482;47.014;7.652;2023-07-30T14:08:23;2.20;;;2.00;;
64950;SDS011;51482;47.014;7.652;2023-07-30T14:10:48;2.50;;;1.83;;
64950;SDS011;51482;47.014;7.652;2023-07-30T14:13:14;1.98;;;1.70;;
64950;SDS011;51482;47.014;7.652;2023-07-30T14:15:40;3.38;;;1.80;;
64950;SDS011;51482;47.014;7.652;2023-07-30T14:18:06;1.73;;;1.63;;
64950;SDS011;51482;47.014;7.652;2023-07-30T14:20:31;3.55;;;1.67;;
64950;SDS011;51482;47.014;7.652;2023-07-30T14:22:57;2.35;;;2.10;;
64950;SDS011;51482;47.014;7.652;2023-07-30T14:25:25;3.00;;;1.75;;
64950;SDS011;51482;47.014;7.652;2023-07-30T14:27:51;3.35;;;1.90;;
64950;SDS011;51482;47.014;7.652;2023-07-30T14:30:16;1.85;;;1.73;;
64950;SDS011;51482;47.014;7.652;2023-07-30T14:32:42;1.80;;;1.52;;
64950;SDS011;51482;47.014;7.652;2023-07-30T14:35:07;1.95;;;1.75;;
64950;SDS011;51482;47.014;7.652;2023-07-30T14:37:33;2.35;;;1.90;;
64950;SDS011;51482;47.014;7.652;2023-07-30T14:39:59;2.10;;;1.70;;
64950;SDS011;51482;47.014;7.652;2023-07-30T14:42:24;1.85;;;1.70;;
64950;SDS011;51482;47.014;7.652;2023-07-30T14:44:50;1.90;;;1.70;;
64950;SDS011;51482;47.014;7.652;2023-07-30T14:47:15;1.83;;;1.67;;
64950;SDS011;51482;47.014;7.652;2023-07-30T14:49:41;1.92;;;1.83;;
64950;SDS011;51482;47.014;7.652;2023-07-30T14:52:08;1.83;;;1.73;;